createdAt,value
2018-06-13T00:03:00.000Z,97798
2018-06-13T00:08:00.000Z,97793
2018-06-13T00:13:00.000Z,97787
2018-06-13T00:18:00.000Z,97775
2018-06-13T00:23:00.000Z,97769
2018-06-13T00:28:00.000Z,97766
2018-06-13T00:33:00.000Z,97757
2018-06-13T00:38:00.000Z,97760
2018-06-13T00:43:00.000Z,97754
2018-06-13T00:48:00.000Z,97763
2018-06-13T00:53:00.000Z,97757
2018-06-13T00:58:00.000Z,97757
2018-06-13T01:03:00.000Z,97765
2018-06-13T01:08:00.000Z,97754
2018-06-13T01:13:00.000Z,97746
2018-06-13T01:18:00.000Z,97757
2018-06-13T01:23:00.000Z,97754
2018-06-13T01:28:00.000Z,97766
2018-06-13T01:33:00.000Z,97755
2018-06-13T01:38:00.000Z,97767
2018-06-13T01:43:00.000Z,97736
2018-06-13T01:49:00.000Z,97723
2018-06-13T01:54:00.000Z,97727
2018-06-13T01:59:00.000Z,97721
2018-06-13T02:04:00.000Z,97713
2018-06-13T02:09:00.000Z,97707
2018-06-13T02:14:00.000Z,97703
2018-06-13T02:19:00.000Z,97703
2018-06-13T02:24:00.000Z,97694
2018-06-13T02:29:00.000Z,97696
2018-06-13T02:34:00.000Z,97709
2018-06-13T02:39:00.000Z,97705
2018-06-13T02:44:00.000Z,97691
2018-06-13T02:49:00.000Z,97688
2018-06-13T02:54:00.000Z,97686
2018-06-13T02:59:00.000Z,97685
2018-06-13T03:04:00.000Z,97677
2018-06-13T03:09:00.000Z,97685
2018-06-13T03:14:00.000Z,97684
2018-06-13T03:19:00.000Z,97692
2018-06-13T03:24:00.000Z,97690
2018-06-13T03:29:00.000Z,97690
2018-06-13T03:34:00.000Z,97695
2018-06-13T03:39:00.000Z,97701
2018-06-13T03:44:00.000Z,97708
2018-06-13T03:49:00.000Z,97700
2018-06-13T03:54:00.000Z,97709
2018-06-13T03:59:00.000Z,97708
2018-06-13T04:04:00.000Z,97700
2018-06-13T04:09:00.000Z,97710
2018-06-13T04:14:00.000Z,97701
2018-06-13T04:19:00.000Z,97707
2018-06-13T04:24:00.000Z,97704
2018-06-13T04:29:00.000Z,97730
2018-06-13T04:34:00.000Z,97734
2018-06-13T04:39:00.000Z,97732
2018-06-13T04:44:00.000Z,97737
2018-06-13T04:49:00.000Z,97728
2018-06-13T04:54:00.000Z,97730
2018-06-13T04:59:00.000Z,97726
2018-06-13T05:04:00.000Z,97731
2018-06-13T05:09:00.000Z,97714
2018-06-13T05:14:00.000Z,97718
2018-06-13T05:19:00.000Z,97719
2018-06-13T05:24:00.000Z,97730
2018-06-13T05:29:00.000Z,97730
2018-06-13T05:34:00.000Z,97731
2018-06-13T05:39:00.000Z,97737
2018-06-13T05:44:00.000Z,97747
2018-06-13T05:49:00.000Z,97747
2018-06-13T05:54:00.000Z,97752
2018-06-13T05:59:00.000Z,97759
2018-06-13T06:04:00.000Z,97759
2018-06-13T06:09:00.000Z,97762
2018-06-13T06:14:00.000Z,97768
2018-06-13T06:19:00.000Z,97762
2018-06-13T06:24:00.000Z,97770
2018-06-13T06:29:00.000Z,97765
2018-06-13T06:34:00.000Z,97760
2018-06-13T06:39:00.000Z,97756
2018-06-13T06:44:00.000Z,97766
2018-06-13T06:49:00.000Z,97762
2018-06-13T06:54:00.000Z,97751
2018-06-13T06:59:00.000Z,97755
2018-06-13T07:04:00.000Z,97745
2018-06-13T07:09:00.000Z,97738
2018-06-13T07:14:00.000Z,97728
2018-06-13T07:19:00.000Z,97737
2018-06-13T07:24:00.000Z,97743
2018-06-13T07:29:00.000Z,97749
2018-06-13T07:34:00.000Z,97747
2018-06-13T07:39:00.000Z,97737
2018-06-13T07:45:00.000Z,97731
2018-06-13T07:50:00.000Z,97738
2018-06-13T07:55:00.000Z,97731
2018-06-13T08:00:00.000Z,97738
2018-06-13T08:05:00.000Z,97737
2018-06-13T08:10:00.000Z,97731
2018-06-13T08:15:00.000Z,97729
2018-06-13T08:20:00.000Z,97732
2018-06-13T08:25:00.000Z,97735
2018-06-13T08:30:00.000Z,97729
2018-06-13T08:35:00.000Z,97729
2018-06-13T08:40:00.000Z,97739
2018-06-13T08:45:00.000Z,97745
2018-06-13T08:50:00.000Z,97767
2018-06-13T08:55:00.000Z,97755
2018-06-13T09:00:00.000Z,97754
2018-06-13T09:05:00.000Z,97759
2018-06-13T09:10:00.000Z,97748
2018-06-13T09:15:00.000Z,97755
2018-06-13T09:20:00.000Z,97754
2018-06-13T09:25:00.000Z,97760
2018-06-13T09:30:00.000Z,97766
2018-06-13T09:35:00.000Z,97763
2018-06-13T09:40:00.000Z,97758
2018-06-13T09:45:00.000Z,97754
2018-06-13T09:50:00.000Z,97754
2018-06-13T09:55:00.000Z,97749
2018-06-13T10:00:00.000Z,97747
2018-06-13T10:05:00.000Z,97732
2018-06-13T10:10:00.000Z,97738
2018-06-13T10:15:00.000Z,97727
2018-06-13T10:20:00.000Z,97723
2018-06-13T10:25:00.000Z,97709
2018-06-13T10:30:00.000Z,97707
2018-06-13T10:35:00.000Z,97704
2018-06-13T10:40:00.000Z,97719
2018-06-13T10:45:00.000Z,97731
2018-06-13T10:50:00.000Z,97743
2018-06-13T10:55:00.000Z,97736
2018-06-13T11:00:00.000Z,97728
2018-06-13T11:05:00.000Z,97734
2018-06-13T11:10:00.000Z,97729
2018-06-13T11:15:00.000Z,97729
2018-06-13T11:20:00.000Z,97728
2018-06-13T11:25:00.000Z,97726
2018-06-13T11:30:00.000Z,97720
2018-06-13T11:35:00.000Z,97713
2018-06-13T11:40:00.000Z,97709
2018-06-13T11:45:00.000Z,97714
2018-06-13T11:50:00.000Z,97714
2018-06-13T11:55:00.000Z,97715
2018-06-13T12:00:00.000Z,97717
2018-06-13T12:05:00.000Z,97718
2018-06-13T12:10:00.000Z,97712
2018-06-13T12:15:00.000Z,97703
2018-06-13T12:20:00.000Z,97693
2018-06-13T12:25:00.000Z,97702
2018-06-13T12:30:00.000Z,97704
2018-06-13T12:35:00.000Z,97693
2018-06-13T12:40:00.000Z,97695
2018-06-13T12:45:00.000Z,97697
2018-06-13T12:50:00.000Z,97694
2018-06-13T12:55:00.000Z,97693
2018-06-13T13:00:00.000Z,97689
2018-06-13T13:05:00.000Z,97689
2018-06-13T13:10:00.000Z,97692
2018-06-13T13:15:00.000Z,97696
2018-06-13T13:20:00.000Z,97702
2018-06-13T13:25:00.000Z,97713
2018-06-13T13:30:00.000Z,97707
2018-06-13T13:35:00.000Z,97707
2018-06-13T13:40:00.000Z,97715
2018-06-13T13:45:00.000Z,97712
2018-06-13T13:50:00.000Z,97720
2018-06-13T13:56:00.000Z,97708
2018-06-13T14:01:00.000Z,97724
2018-06-13T14:06:00.000Z,97725
2018-06-13T14:11:00.000Z,97730
2018-06-13T14:16:00.000Z,97726
2018-06-13T14:21:00.000Z,97731
2018-06-13T14:26:00.000Z,97738
2018-06-13T14:31:00.000Z,97746
2018-06-13T14:36:00.000Z,97751
2018-06-13T14:41:00.000Z,97754
2018-06-13T14:46:00.000Z,97742
2018-06-13T14:51:00.000Z,97754
2018-06-13T14:56:00.000Z,97750
2018-06-13T15:01:00.000Z,97757
2018-06-13T15:06:00.000Z,97768
2018-06-13T15:11:00.000Z,97764
2018-06-13T15:16:00.000Z,97778
2018-06-13T15:21:00.000Z,97782
2018-06-13T15:26:00.000Z,97798
2018-06-13T15:31:00.000Z,97811
2018-06-13T15:36:00.000Z,97820
2018-06-13T15:41:00.000Z,97818
2018-06-13T15:46:00.000Z,97816
2018-06-13T15:51:00.000Z,97814
2018-06-13T15:56:00.000Z,97845
2018-06-13T16:01:00.000Z,97850
2018-06-13T16:06:00.000Z,97867
2018-06-13T16:11:00.000Z,97865
2018-06-13T16:16:00.000Z,97867
2018-06-13T16:21:00.000Z,97881
2018-06-13T16:26:00.000Z,97886
2018-06-13T16:31:00.000Z,97893
2018-06-13T16:36:00.000Z,97881
2018-06-13T16:41:00.000Z,97893
2018-06-13T16:46:00.000Z,97896
2018-06-13T16:51:00.000Z,97895
2018-06-13T16:56:00.000Z,97915
2018-06-13T17:01:00.000Z,97917
2018-06-13T17:06:00.000Z,97910
2018-06-13T17:11:00.000Z,97908
2018-06-13T17:16:00.000Z,97902
2018-06-13T17:21:00.000Z,97917
2018-06-13T17:26:00.000Z,97929
2018-06-13T17:31:00.000Z,97938
2018-06-13T17:36:00.000Z,97951
2018-06-13T17:41:00.000Z,97961
2018-06-13T17:46:00.000Z,97968
2018-06-13T17:51:00.000Z,97965
2018-06-13T17:56:00.000Z,97964
2018-06-13T18:01:00.000Z,97959
2018-06-13T18:06:00.000Z,97972
2018-06-13T18:11:00.000Z,97981
2018-06-13T18:16:00.000Z,97986
2018-06-13T18:21:00.000Z,97982
2018-06-13T18:26:00.000Z,97992
2018-06-13T18:31:00.000Z,98001
2018-06-13T18:36:00.000Z,97993
2018-06-13T18:41:00.000Z,98005
2018-06-13T18:46:00.000Z,98010
2018-06-13T18:51:00.000Z,97999
2018-06-13T18:56:00.000Z,98006
2018-06-13T19:01:00.000Z,98002
2018-06-13T19:06:00.000Z,98036
2018-06-13T19:11:00.000Z,98050
2018-06-13T19:16:00.000Z,98065
2018-06-13T19:21:00.000Z,98076
2018-06-13T19:26:00.000Z,98079
2018-06-13T19:32:00.000Z,98106
2018-06-13T19:37:00.000Z,98101
2018-06-13T19:42:00.000Z,98107
2018-06-13T19:47:00.000Z,98118
2018-06-13T19:52:00.000Z,98121
2018-06-13T19:57:00.000Z,98131
2018-06-13T20:02:00.000Z,98132
2018-06-13T20:07:00.000Z,98148
2018-06-13T20:12:00.000Z,98154
2018-06-13T20:17:00.000Z,98170
2018-06-13T20:22:00.000Z,98180
2018-06-13T20:27:00.000Z,98164
2018-06-13T20:32:00.000Z,98173
2018-06-13T20:37:00.000Z,98172
2018-06-13T20:42:00.000Z,98196
2018-06-13T20:47:00.000Z,98197
2018-06-13T20:52:00.000Z,98211
2018-06-13T20:57:00.000Z,98203
2018-06-13T21:02:00.000Z,98210
2018-06-13T21:07:00.000Z,98212
2018-06-13T21:12:00.000Z,98219
2018-06-13T21:17:00.000Z,98234
2018-06-13T21:22:00.000Z,98234
2018-06-13T21:27:00.000Z,98238
2018-06-13T21:32:00.000Z,98246
2018-06-13T21:37:00.000Z,98232
2018-06-13T21:42:00.000Z,98237
2018-06-13T21:47:00.000Z,98252
2018-06-13T21:52:00.000Z,98243
2018-06-13T21:57:00.000Z,98242
2018-06-13T22:02:00.000Z,98241
2018-06-13T22:07:00.000Z,98235
2018-06-13T22:12:00.000Z,98248
2018-06-13T22:17:00.000Z,98255
2018-06-13T22:22:00.000Z,98252
2018-06-13T22:27:00.000Z,98255
2018-06-13T22:32:00.000Z,98246
2018-06-13T22:37:00.000Z,98250
2018-06-13T22:42:00.000Z,98253
2018-06-13T22:47:00.000Z,98257
2018-06-13T22:52:00.000Z,98254
2018-06-13T22:57:00.000Z,98255
2018-06-13T23:02:00.000Z,98246
2018-06-13T23:07:00.000Z,98264
2018-06-13T23:12:00.000Z,98264
2018-06-13T23:17:00.000Z,98267
2018-06-13T23:22:00.000Z,98277
2018-06-13T23:27:00.000Z,98273
2018-06-13T23:32:00.000Z,98277
2018-06-13T23:37:00.000Z,98268
2018-06-13T23:42:00.000Z,98291
2018-06-13T23:47:00.000Z,98282
2018-06-13T23:52:00.000Z,98292
2018-06-13T23:57:00.000Z,98288
